Flight Track Log - Related Links

Times and Time Zones

All times are in EDT time to prevent confusion due to time zone crossing. See the KAL1334 flight status page for this flight to view local times or setup timezone preferences in your user account.


Time Position Orientation Groundspeed Altitude Reporting Facility
EDT Latitude Longitude Course Direction KTS MPH feet Rate Location/Type
Tue 11:11:00 PM 35.2820 127.4851 346° North  Level Estimated
Tue 11:12:00 PM 35.3557 127.4633 346° North  Level Estimated
Tue 11:13:00 PM 35.4293 127.4414 346° North  Level Estimated
Tue 11:14:00 PM 35.5030 127.4195 346° North  Level Estimated
Tue 11:15:00 PM 35.5767 127.3975 346° North  Level Estimated
Tue 11:16:00 PM 35.6503 127.3755 346° North  Level Estimated
Tue 11:17:00 PM 35.7240 127.3535 346° North  Level Estimated
Tue 11:18:00 PM 35.7997 127.3308 346° North  Level Estimated
Tue 11:19:00 PM 35.8754 127.3081 346° North  Level Estimated
Tue 11:20:00 PM 35.9511 127.2853 346° North  Level Estimated
Tue 11:21:00 PM 36.0268 127.2625 346° North  Level Estimated
Tue 11:22:00 PM 36.1025 127.2396 346° North  Level Estimated
Tue 11:23:00 PM 36.1782 127.2167 346° North  Level Estimated
Tue 11:24:00 PM 36.2538 127.1937 346° North  Level Estimated
Tue 11:25:00 PM 36.3295 127.1707 346° North  Level Estimated
Tue 11:26:00 PM 36.4052 127.1477 346° North  Level Estimated
Tue 11:27:00 PM 36.4808 127.1246 346° North  Level Estimated
Tue 11:28:00 PM 36.5565 127.1014 346° North  Level Estimated
Tue 11:29:00 PM 36.6321 127.0782 346° North  Level Estimated
Tue 11:30:00 PM 36.7078 127.0550 346° North  Level Estimated
Tue 11:31:00 PM 36.7835 127.0318 346° North  Level Estimated
Tue 11:32:00 PM 36.8591 127.0084 346° North  Level Estimated
Tue 11:33:00 PM 36.9347 126.9851 346° North  Level Estimated
Tue 11:34:00 PM 37.0104 126.9617 346° North  Level Estimated
Tue 11:35:00 PM 37.0860 126.9382 346° North  Level Estimated
Tue 11:36:00 PM 37.1616 126.9147 346° North  Level Estimated
Tue 11:37:00 PM 37.2372 126.8911 346° North  Level Estimated
Tue 11:38:00 PM 37.3128 126.8675 346° North  Level Estimated
Tue 11:39:00 PM 37.3885 126.8439 346° North  Level Estimated
Tue 11:40:00 PM 37.4641 126.8202 346° North  Level Estimated
Tue 11:41:00 PM 37.5396 126.7964 346° North  Level Estimated
Tue 11:42:00 PM 37.5583 126.7906 346° North  Level Estimated
Tue 11:43:00 PM 37.5583 126.7906 North  Level Estimated
Tue 11:44:00 PM 37.5583 126.7906 North  Level Estimated
Tue 11:45:00 PM 37.5583 126.7906 North  Level Estimated
Tue 11:46:00 PM 37.5583 126.7906 North  Level Estimated
Tue 11:47:00 PM 37.5583 126.7906 North  Level Estimated
Tue 11:48:00 PM 37.5583 126.7906 North  Level Estimated
Tue 11:49:00 PM 37.5583 126.7906 North  Level Estimated

Login

Don't have an account? Register now (free) for customized features, flight alerts, and more!